Time;durP1;ratioP1;P1;durP2;ratioP2;P2;SDS_P1;SDS_P2;PMS_P1;PMS_P2;Temp;Humidity;BMP_temperature;BMP_pressure;BME280_temperature;BME280_humidity;BME280_pressure;Samples;Min_cycle;Max_cycle;Signal;HPM_P1;HPM_P2
2022/08/23 00:00:44;;;;;;;4.35;1.27;;;;;;;20.30;75.74;100969.38;2058469;28;20046;-68
2022/08/23 00:01:52;;;;;;;3.45;1.08;;;;;;;20.31;75.83;100968.28;2058691;28;20054;-68
2022/08/23 00:02:55;;;;;;;4.00;1.10;;;;;;;20.29;76.10;100973.25;2057668;28;20362;-68
2022/08/23 00:04:02;;;;;;;2.78;1.30;;;;;;;20.30;75.98;100980.31;2057601;28;20050;-68
2022/08/23 00:05:06;;;;;;;3.15;1.20;;;;;;;20.32;76.22;100976.13;2066575;28;20068;-67
2022/08/23 00:06:14;;;;;;;2.55;1.10;;;;;;;20.32;76.30;100983.50;2072311;28;20064;-68
2022/08/23 00:07:16;;;;;;;6.32;1.10;;;;;;;20.33;76.68;100979.63;2060026;28;20057;-68
2022/08/23 00:08:20;;;;;;;2.78;1.05;;;;;;;20.36;76.52;100987.16;2060991;28;20046;-69
2022/08/23 00:09:26;;;;;;;3.00;1.20;;;;;;;20.36;76.51;100978.97;2061233;28;20061;-69
2022/08/23 00:10:31;;;;;;;1.58;0.95;;;;;;;20.36;76.73;100981.69;2060418;28;20542;-69
2022/08/23 00:11:47;;;;;;;2.42;0.90;;;;;;;20.35;76.96;100971.91;2064812;28;20407;-69
2022/08/23 00:12:50;;;;;;;4.25;1.23;;;;;;;20.34;77.34;100976.59;2073620;28;20398;-68
2022/08/23 00:13:51;;;;;;;2.08;1.13;;;;;;;20.36;77.50;100970.78;2062429;28;20033;-65
2022/08/23 00:14:57;;;;;;;2.60;1.00;;;;;;;20.36;77.63;100976.25;2073668;28;20054;-68
2022/08/23 00:16:00;;;;;;;2.58;1.13;;;;;;;20.35;77.71;100969.97;2074443;28;20644;-68
2022/08/23 00:17:08;;;;;;;1.20;1.10;;;;;;;20.35;78.04;100977.38;2065105;28;20034;-68
2022/08/23 00:18:13;;;;;;;5.22;1.15;;;;;;;20.35;78.35;100966.47;2056534;28;20406;-69
2022/08/23 00:19:18;;;;;;;2.90;1.33;;;;;;;20.33;78.55;100966.81;2057967;28;20046;-67
2022/08/23 00:20:23;;;;;;;2.63;1.25;;;;;;;20.35;78.60;100961.00;2066949;28;20034;-67
2022/08/23 00:21:28;;;;;;;4.53;1.20;;;;;;;20.37;78.73;100969.66;2073692;28;20061;-67
2022/08/23 00:22:33;;;;;;;2.08;1.30;;;;;;;20.35;78.76;100964.53;2073758;28;20462;-65
2022/08/23 00:23:35;;;;;;;2.53;1.17;;;;;;;20.36;78.88;100973.50;2058032;28;20622;-66
2022/08/23 00:24:40;;;;;;;2.80;1.00;;;;;;;20.35;79.27;100963.72;2062052;28;20382;-68
2022/08/23 00:25:42;;;;;;;3.50;1.42;;;;;;;20.34;79.07;100973.06;2076047;28;20040;-68
2022/08/23 00:26:54;;;;;;;4.25;1.38;;;;;;;20.34;79.31;100965.66;2073466;28;20060;-69
2022/08/23 00:27:56;;;;;;;4.00;1.48;;;;;;;20.37;79.21;100966.94;2058388;28;20053;-68
2022/08/23 00:28:58;;;;;;;1.38;1.10;;;;;;;20.38;79.45;100960.31;2068105;28;20028;-69
2022/08/23 00:30:03;;;;;;;3.40;1.17;;;;;;;20.38;79.32;100963.06;2062267;28;20402;-66
2022/08/23 00:31:06;;;;;;;1.77;1.10;;;;;;;20.40;79.43;100963.53;2072110;28;20030;-66
2022/08/23 00:32:12;;;;;;;2.17;1.30;;;;;;;20.42;79.34;100963.97;2060780;28;20057;-66
2022/08/23 00:33:20;;;;;;;2.47;1.20;;;;;;;20.40;79.60;100965.44;2052911;28;20043;-66
2022/08/23 00:34:22;;;;;;;3.10;1.40;;;;;;;20.38;79.72;100963.06;2059361;28;20042;-68
2022/08/23 00:35:24;;;;;;;2.15;1.10;;;;;;;20.37;79.78;100956.00;2074022;28;20046;-68
2022/08/23 00:36:27;;;;;;;5.22;1.30;;;;;;;20.37;79.73;100966.94;2082010;28;20060;-67
2022/08/23 00:37:31;;;;;;;5.70;1.35;;;;;;;20.38;79.89;100969.31;2080532;28;20041;-68
2022/08/23 00:38:38;;;;;;;2.92;0.88;;;;;;;20.42;79.99;100971.38;2067368;28;20034;-66
2022/08/23 00:39:42;;;;;;;2.08;1.30;;;;;;;20.42;79.96;100969.44;2065541;28;20053;-66
2022/08/23 00:40:51;;;;;;;2.53;1.20;;;;;;;20.45;80.17;100967.97;2059510;28;20046;-67
2022/08/23 00:41:59;;;;;;;3.42;1.58;;;;;;;20.46;80.22;100959.47;2065782;28;20049;-67
2022/08/23 00:47:41;;;;;;;3.20;1.13;;;;;;;20.43;79.54;100967.50;2062432;28;20058;-69
2022/08/23 00:48:44;;;;;;;2.45;1.17;;;;;;;20.42;79.68;100963.97;2067265;28;20058;-67
2022/08/23 00:50:13;;;;;;;3.63;1.40;;;;;;;20.41;79.70;100962.38;2074544;28;20947;-68
2022/08/23 00:51:29;;;;;;;3.75;1.23;;;;;;;20.41;79.84;100958.88;2077273;28;20041;-67
2022/08/23 00:52:37;;;;;;;4.35;1.40;;;;;;;20.40;80.09;100960.81;2073692;28;20041;-66
2022/08/23 00:53:46;;;;;;;3.13;1.60;;;;;;;20.40;80.05;100958.06;2073831;28;20034;-66
2022/08/23 00:54:51;;;;;;;6.28;1.45;;;;;;;20.41;79.94;100956.94;2057932;28;20031;-68
2022/08/23 00:56:02;;;;;;;2.97;1.13;;;;;;;20.40;80.17;100966.25;2050613;28;20054;-68
2022/08/23 00:57:12;;;;;;;2.58;1.20;;;;;;;20.35;80.11;100959.06;2058917;28;20035;-67
2022/08/23 00:58:19;;;;;;;2.00;1.40;;;;;;;20.33;80.32;100961.34;2059501;28;20059;-69
2022/08/23 00:59:25;;;;;;;7.30;1.48;;;;;;;20.34;80.04;100962.94;2083253;28;20044;-67
2022/08/23 01:00:31;;;;;;;3.28;1.48;;;;;;;20.32;80.25;100958.94;2072616;28;20057;-68
2022/08/23 01:01:37;;;;;;;2.17;1.17;;;;;;;20.31;80.19;100954.63;2065595;28;20091;-68
2022/08/23 01:02:41;;;;;;;2.47;1.20;;;;;;;20.32;80.24;100958.94;2057430;28;20046;-69
2022/08/23 01:03:50;;;;;;;3.42;1.20;;;;;;;20.30;80.16;100964.75;2049372;28;20039;-69
2022/08/23 01:04:58;;;;;;;3.85;1.42;;;;;;;20.29;79.95;100965.84;2058600;28;20045;-66
2022/08/23 01:06:06;;;;;;;3.15;1.30;;;;;;;20.27;80.00;100968.16;2062066;28;20042;-68
2022/08/23 01:07:16;;;;;;;2.08;1.10;;;;;;;20.28;80.12;100964.28;2066522;28;20038;-68
2022/08/23 01:08:28;;;;;;;2.22;1.05;;;;;;;20.30;80.28;100967.47;2057704;28;20512;-68
2022/08/23 01:09:33;;;;;;;3.53;1.30;;;;;;;20.32;80.20;100965.19;2059911;28;20035;-68
2022/08/23 01:10:42;;;;;;;4.13;1.83;;;;;;;20.31;80.28;100965.53;2065949;28;20053;-68
2022/08/23 01:11:55;;;;;;;3.20;1.10;;;;;;;20.31;80.35;100954.63;2066415;28;20414;-66
2022/08/23 01:13:08;;;;;;;2.67;1.25;;;;;;;20.30;80.37;100967.47;2066927;28;20041;-66
2022/08/23 01:14:39;;;;;;;2.63;1.30;;;;;;;20.31;80.52;100957.34;2072131;28;20050;-68
2022/08/23 01:16:00;;;;;;;5.32;1.42;;;;;;;20.27;80.60;100959.94;2074242;28;20037;-68
2022/08/23 01:17:48;;;;;;;2.28;1.20;;;;;;;20.26;80.50;100961.06;2071741;28;20088;-68
2022/08/23 01:18:54;;;;;;;2.35;1.05;;;;;;;20.26;80.69;100952.88;2069246;28;20098;-68
2022/08/23 01:20:00;;;;;;;3.35;1.40;;;;;;;20.26;80.92;100960.28;2071560;28;20034;-68
2022/08/23 01:21:12;;;;;;;3.17;1.20;;;;;;;20.22;80.87;100962.06;2064244;28;20062;-68
2022/08/23 01:22:40;;;;;;;2.03;1.20;;;;;;;20.18;81.12;100961.94;2065582;28;20030;-68
2022/08/23 01:23:48;;;;;;;4.30;1.70;;;;;;;20.18;81.16;100964.69;2069277;28;20042;-68
2022/08/23 01:24:51;;;;;;;4.40;1.77;;;;;;;20.20;81.16;100961.59;2056152;28;20035;-68
2022/08/23 01:25:58;;;;;;;3.38;1.20;;;;;;;20.20;81.33;100956.16;2032840;29;20047;-67
2022/08/23 01:27:01;;;;;;;2.30;1.33;;;;;;;20.20;81.26;100956.16;2054336;28;20038;-68
2022/08/23 01:28:03;;;;;;;3.78;1.30;;;;;;;20.18;81.62;100956.50;2064008;28;20034;-68
2022/08/23 01:29:06;;;;;;;4.65;1.33;;;;;;;20.16;81.51;100955.22;2056233;28;20031;-68
2022/08/23 01:30:15;;;;;;;3.58;1.40;;;;;;;20.18;81.71;100955.69;2048684;28;20047;-67
2022/08/23 01:31:25;;;;;;;3.50;1.73;;;;;;;20.17;81.79;100963.06;2041490;29;20095;-68
2022/08/23 01:32:38;;;;;;;1.52;1.20;;;;;;;20.21;81.80;100957.72;2050665;28;20396;-68
2022/08/23 01:33:41;;;;;;;2.17;1.23;;;;;;;20.22;81.65;100964.81;2061201;28;20045;-68
2022/08/23 01:34:43;;;;;;;7.35;1.70;;;;;;;20.24;81.78;100962.53;2056294;28;20046;-67
2022/08/23 01:35:50;;;;;;;4.50;1.33;;;;;;;20.23;81.80;100956.28;2056811;28;20107;-67
2022/08/23 01:36:55;;;;;;;6.38;1.40;;;;;;;20.24;82.04;100965.25;2071710;28;20040;-66
2022/08/23 01:37:58;;;;;;;3.55;1.48;;;;;;;20.25;82.00;100958.69;2080095;28;20040;-68
2022/08/23 01:39:06;;;;;;;3.95;1.35;;;;;;;20.25;81.92;100964.94;2064115;28;20030;-66
2022/08/23 01:40:12;;;;;;;3.42;1.30;;;;;;;20.27;82.01;100965.41;2056873;28;20046;-66
2022/08/23 01:41:16;;;;;;;6.85;1.52;;;;;;;20.30;82.06;100972.13;2065570;28;20039;-66
2022/08/23 01:42:19;;;;;;;5.53;1.83;;;;;;;20.30;82.20;100966.66;2072105;28;20041;-65
2022/08/23 01:43:24;;;;;;;8.32;1.40;;;;;;;20.29;82.21;100965.84;2056166;28;20057;-65
2022/08/23 01:44:31;;;;;;;2.47;1.30;;;;;;;20.27;82.34;100962.69;2065126;28;20410;-65
2022/08/23 01:45:37;;;;;;;2.25;1.45;;;;;;;20.28;82.45;100958.00;2072151;28;20045;-65
2022/08/23 01:46:44;;;;;;;4.80;1.85;;;;;;;20.26;82.52;100963.78;2064043;28;20038;-66
2022/08/23 01:47:50;;;;;;;4.65;1.30;;;;;;;20.26;82.61;100966.53;2057606;28;20046;-66
2022/08/23 01:48:57;;;;;;;3.20;1.50;;;;;;;20.24;82.72;100959.78;2065240;28;20052;-66
2022/08/23 01:50:03;;;;;;;3.00;1.33;;;;;;;20.26;83.06;100965.72;2072234;28;20049;-66
2022/08/23 01:51:08;;;;;;;3.90;1.40;;;;;;;20.28;82.88;100966.22;2072138;28;20053;-66
2022/08/23 01:52:14;;;;;;;5.88;1.65;;;;;;;20.27;82.90;100970.03;2064390;28;20053;-66
2022/08/23 01:53:18;;;;;;;3.15;1.67;;;;;;;20.25;83.35;100975.06;2063005;28;20525;-66
2022/08/23 01:54:23;;;;;;;4.28;1.40;;;;;;;20.24;83.35;100962.53;2056718;28;20039;-65
2022/08/23 01:55:29;;;;;;;6.70;1.85;;;;;;;20.25;83.35;100964.13;2063680;28;20030;-67
2022/08/23 01:56:32;;;;;;;5.88;1.60;;;;;;;20.23;83.36;100963.66;2072856;28;20053;-66
2022/08/23 01:57:43;;;;;;;5.85;1.60;;;;;;;20.23;83.63;100958.22;2064846;28;20046;-67
2022/08/23 01:58:52;;;;;;;4.35;1.45;;;;;;;20.21;83.86;100957.72;2065854;28;20053;-66
2022/08/23 01:59:56;;;;;;;3.38;1.42;;;;;;;20.21;84.00;100952.28;2063979;28;20045;-68
2022/08/23 02:00:59;;;;;;;3.83;1.73;;;;;;;20.22;84.03;100959.34;2056210;28;20504;-67
2022/08/23 02:02:02;;;;;;;5.63;1.48;;;;;;;20.22;84.18;100960.13;2056289;28;20065;-66
2022/08/23 02:03:07;;;;;;;2.88;1.58;;;;;;;20.22;84.31;100962.88;2066386;28;20034;-67
2022/08/23 02:04:10;;;;;;;4.00;1.40;;;;;;;20.22;84.30;100971.06;2072317;28;20502;-67
2022/08/23 02:05:14;;;;;;;3.83;1.58;;;;;;;20.23;84.46;100963.66;2064082;28;20053;-67
2022/08/23 02:06:16;;;;;;;4.05;1.60;;;;;;;20.25;84.48;100969.59;2056593;28;20042;-67
2022/08/23 02:07:19;;;;;;;4.40;1.70;;;;;;;20.23;84.56;100952.75;2055623;28;20054;-66
2022/08/23 02:09:48;;;;;;;4.30;1.50;;;;;;;20.20;84.79;100961.59;2066992;28;20037;-64
2022/08/23 02:10:52;;;;;;;4.38;2.20;;;;;;;20.20;84.88;100953.41;2055980;28;20046;-67
2022/08/23 02:11:57;;;;;;;2.60;1.35;;;;;;;20.21;85.08;100952.28;2056453;28;20043;-67
2022/08/23 02:13:01;;;;;;;5.97;1.70;;;;;;;20.19;85.26;100949.09;2072472;28;20042;-67
2022/08/23 02:14:14;;;;;;;2.95;1.50;;;;;;;20.18;85.24;100950.25;2078900;28;20037;-66
2022/08/23 02:15:25;;;;;;;4.25;1.60;;;;;;;20.19;85.25;100938.19;2071915;28;20517;-67
2022/08/23 02:16:49;;;;;;;1.70;1.50;;;;;;;20.16;85.40;100949.75;2061323;28;20077;-67
2022/08/23 02:17:51;;;;;;;4.38;1.38;;;;;;;20.15;85.65;100943.50;2059686;28;20046;-67
2022/08/23 02:19:01;;;;;;;2.75;1.88;;;;;;;20.15;85.83;100948.97;2070553;28;20073;-67
2022/08/23 02:20:10;;;;;;;3.75;1.65;;;;;;;20.18;85.62;100947.50;2079193;28;20037;-68
2022/08/23 02:21:13;;;;;;;3.70;1.50;;;;;;;20.18;85.84;100948.31;2055796;28;20035;-67
2022/08/23 02:22:15;;;;;;;3.45;1.60;;;;;;;20.22;85.84;100956.63;2047833;28;20051;-68
2022/08/23 02:23:17;;;;;;;5.85;1.65;;;;;;;20.19;85.99;100949.88;2055665;28;20061;-68
2022/08/23 02:24:24;;;;;;;4.13;1.80;;;;;;;20.17;86.15;100952.16;2056018;28;20058;-67
2022/08/23 02:25:26;;;;;;;4.35;1.60;;;;;;;20.18;86.18;100958.44;2063706;28;20043;-68
2022/08/23 02:26:36;;;;;;;3.13;1.40;;;;;;;20.18;86.28;100958.44;2057450;28;20527;-67
2022/08/23 02:27:41;;;;;;;4.43;1.65;;;;;;;20.19;86.24;100960.81;2057243;28;20046;-67
2022/08/23 02:28:49;;;;;;;11.55;2.20;;;;;;;20.21;86.29;100957.72;2055453;28;20042;-66
2022/08/23 02:29:56;;;;;;;2.50;1.83;;;;;;;20.20;86.51;100958.88;2064949;28;20526;-67
2022/08/23 02:31:00;;;;;;;7.50;2.00;;;;;;;20.22;86.53;100964.81;2064675;28;20046;-67
2022/08/23 02:32:06;;;;;;;4.45;1.70;;;;;;;20.22;86.72;100965.59;2064253;28;20026;-67
2022/08/23 02:33:13;;;;;;;6.53;2.00;;;;;;;20.23;86.72;100960.94;2071668;28;20049;-67
2022/08/23 02:34:23;;;;;;;2.53;1.55;;;;;;;20.23;86.78;100955.47;2063599;28;20612;-67
2022/08/23 02:35:26;;;;;;;4.15;1.50;;;;;;;20.24;86.70;100963.34;2056319;28;20039;-67
2022/08/23 02:36:27;;;;;;;3.55;1.73;;;;;;;20.24;87.03;100963.34;2055786;28;20038;-68
2022/08/23 02:37:34;;;;;;;2.90;1.60;;;;;;;20.25;86.97;100969.59;2062989;28;20410;-67
2022/08/23 02:38:42;;;;;;;4.80;1.65;;;;;;;20.24;87.05;100970.72;2063291;28;20081;-67
2022/08/23 02:39:45;;;;;;;4.80;1.95;;;;;;;20.24;87.19;100981.63;2056458;28;20916;-69
2022/08/23 02:40:47;;;;;;;2.45;1.50;;;;;;;20.25;87.13;100972.34;2057006;28;20055;-67
2022/08/23 02:41:50;;;;;;;7.22;1.90;;;;;;;20.25;87.36;100969.59;2063777;28;20053;-66
2022/08/23 02:42:53;;;;;;;12.68;2.40;;;;;;;20.27;87.29;100967.31;2055533;28;20039;-67
2022/08/23 02:43:57;;;;;;;6.25;1.67;;;;;;;20.26;87.48;100966.53;2064491;28;20041;-67
2022/08/23 02:45:01;;;;;;;5.40;1.77;;;;;;;20.25;87.54;100964.13;2071329;28;20049;-67
2022/08/23 02:46:09;;;;;;;2.97;1.83;;;;;;;20.24;87.92;100970.72;2071776;28;20038;-67
2022/08/23 02:47:12;;;;;;;6.38;2.17;;;;;;;20.24;87.85;100970.72;2071717;28;20470;-67
2022/08/23 02:48:19;;;;;;;4.25;1.90;;;;;;;20.22;88.09;100973.00;2064393;28;20041;-67
2022/08/23 02:49:35;;;;;;;5.18;2.10;;;;;;;20.20;88.14;100969.78;2065768;28;20053;-67
2022/08/23 02:50:40;;;;;;;4.07;1.70;;;;;;;20.22;88.47;100976.53;2064949;28;20541;-67
2022/08/23 02:51:45;;;;;;;7.50;2.22;;;;;;;20.25;88.28;100972.34;2064246;28;20034;-67
2022/08/23 02:52:49;;;;;;;4.65;2.25;;;;;;;20.27;88.34;100967.31;2063970;28;20517;-65
2022/08/23 02:53:51;;;;;;;2.80;1.80;;;;;;;20.28;88.46;100967.00;2071280;28;20049;-67
2022/08/23 02:55:00;;;;;;;6.22;2.00;;;;;;;20.29;88.35;100970.53;2071685;28;20049;-67
2022/08/23 02:56:05;;;;;;;6.63;1.90;;;;;;;20.30;88.47;100972.13;2055964;28;22076;-67
2022/08/23 02:57:11;;;;;;;7.43;2.00;;;;;;;20.33;88.45;100974.19;2056821;28;20042;-67
2022/08/23 02:58:18;;;;;;;3.25;2.20;;;;;;;20.31;88.48;100979.19;2063622;28;20065;-67
2022/08/23 02:59:21;;;;;;;5.15;2.25;;;;;;;20.31;88.46;100976.47;2064340;28;20510;-67
2022/08/23 03:00:25;;;;;;;4.07;1.80;;;;;;;20.29;88.52;100970.53;2063759;28;20030;-68
2022/08/23 03:01:33;;;;;;;6.78;1.90;;;;;;;20.27;88.66;100978.25;2055622;28;20047;-67
2022/08/23 03:02:47;;;;;;;5.75;1.88;;;;;;;20.24;88.57;100968.81;2058105;28;20104;-68
2022/08/23 03:03:49;;;;;;;5.00;1.88;;;;;;;20.24;88.64;100973.44;2069759;28;20029;-66
2022/08/23 03:04:55;;;;;;;6.28;1.85;;;;;;;20.23;88.60;100971.84;2058877;28;20043;-67
2022/08/23 03:05:56;;;;;;;2.88;1.60;;;;;;;20.23;88.66;100969.91;2063800;28;20513;-67
2022/08/23 03:06:58;;;;;;;5.75;2.20;;;;;;;20.23;88.73;100969.13;2055639;28;20041;-68
2022/08/23 03:08:02;;;;;;;3.22;1.77;;;;;;;20.23;89.01;100966.41;2047981;28;20046;-67
2022/08/23 03:09:10;;;;;;;5.60;1.77;;;;;;;20.24;88.82;100973.44;2057473;28;20057;-68
2022/08/23 03:10:15;;;;;;;5.40;2.22;;;;;;;20.23;89.06;100967.19;2063874;28;20038;-67
2022/08/23 03:11:27;;;;;;;4.15;2.00;;;;;;;20.24;89.04;100970.72;2056599;28;20043;-67
2022/08/23 03:12:31;;;;;;;3.88;2.15;;;;;;;20.20;88.99;100972.53;2056722;28;20038;-67
2022/08/23 03:13:33;;;;;;;6.40;1.90;;;;;;;20.20;88.55;100969.78;2072254;28;20060;-68
2022/08/23 03:14:38;;;;;;;1.83;1.50;;;;;;;20.21;88.66;100969.47;2064839;28;20045;-68
2022/08/23 03:15:42;;;;;;;3.45;1.73;;;;;;;20.22;88.68;100973.00;2071105;28;20045;-68
2022/08/23 03:16:47;;;;;;;4.25;1.90;;;;;;;20.20;88.70;100967.06;2069449;28;20073;-67
2022/08/23 03:17:52;;;;;;;6.63;1.75;;;;;;;20.22;88.50;100971.06;2071740;28;20497;-67
2022/08/23 03:18:55;;;;;;;3.75;1.80;;;;;;;20.21;88.56;100980.41;2063030;28;20041;-66
2022/08/23 03:19:57;;;;;;;4.18;1.77;;;;;;;20.23;88.45;100982.78;2080025;28;20068;-66
2022/08/23 03:21:03;;;;;;;5.93;2.17;;;;;;;20.24;88.51;100973.44;2071673;28;20038;-67
2022/08/23 03:22:05;;;;;;;7.32;1.80;;;;;;;20.24;88.42;100982.47;2064684;28;20054;-66
2022/08/23 03:23:12;;;;;;;3.88;1.90;;;;;;;20.23;88.64;100980.06;2071912;28;20437;-67
2022/08/23 03:24:15;;;;;;;4.80;2.00;;;;;;;20.25;88.62;100983.25;2080118;28;20125;-66
2022/08/23 03:25:22;;;;;;;9.88;1.80;;;;;;;20.25;88.68;100983.25;2079876;28;20037;-67
2022/08/23 03:26:40;;;;;;;4.45;1.60;;;;;;;20.25;88.80;100986.00;2080040;28;20045;-67
2022/08/23 03:27:43;;;;;;;10.23;2.17;;;;;;;20.26;88.77;100993.03;2079773;28;20060;-67
2022/08/23 03:28:48;;;;;;;6.78;2.08;;;;;;;20.24;88.71;100984.38;2072047;28;20050;-67
2022/08/23 03:29:50;;;;;;;3.22;1.90;;;;;;;20.21;88.77;100979.56;2064060;28;20041;-67
2022/08/23 03:31:00;;;;;;;4.90;2.10;;;;;;;20.20;89.09;100986.19;2063450;28;20490;-66
2022/08/23 03:32:06;;;;;;;5.95;2.00;;;;;;;20.18;89.18;100985.72;2073075;28;20037;-67
2022/08/23 03:33:14;;;;;;;3.72;2.00;;;;;;;20.19;89.15;100987.31;2072128;28;20052;-67
2022/08/23 03:34:16;;;;;;;3.55;1.95;;;;;;;20.18;89.40;100988.47;2056103;28;20123;-67
2022/08/23 03:35:19;;;;;;;7.28;1.90;;;;;;;20.17;89.38;100993.09;2055555;28;20046;-67
2022/08/23 03:36:21;;;;;;;3.83;1.77;;;;;;;20.19;89.44;100993.56;2055653;28;20411;-67
2022/08/23 03:37:26;;;;;;;9.35;1.85;;;;;;;20.19;89.44;100990.84;2053559;28;20035;-67
2022/08/23 03:38:31;;;;;;;4.55;1.70;;;;;;;20.18;89.58;100996.66;2057101;28;20042;-68
2022/08/23 03:39:34;;;;;;;7.60;2.10;;;;;;;20.18;89.48;100996.66;2063303;28;20031;-68
2022/08/23 03:40:39;;;;;;;5.43;1.80;;;;;;;20.16;89.69;100991.50;2055600;28;20475;-67
2022/08/23 03:41:44;;;;;;;8.25;2.35;;;;;;;20.17;89.70;100992.31;2040311;29;20528;-68
2022/08/23 03:42:48;;;;;;;2.97;1.60;;;;;;;20.14;89.83;100989.13;2040962;28;20360;-67
2022/08/23 03:43:57;;;;;;;5.72;1.98;;;;;;;20.18;89.94;100988.47;2071374;28;20050;-67
2022/08/23 03:45:04;;;;;;;3.63;1.90;;;;;;;20.16;89.86;100987.97;2063623;28;20045;-67
2022/08/23 03:46:07;;;;;;;4.45;2.03;;;;;;;20.13;90.20;100990.22;2055273;28;20038;-67
2022/08/23 03:47:16;;;;;;;5.00;2.38;;;;;;;20.13;90.46;100989.44;2058296;28;20535;-67
2022/08/23 03:48:23;;;;;;;4.07;1.77;;;;;;;20.15;90.34;100984.47;2056169;28;20053;-67
2022/08/23 03:49:27;;;;;;;4.28;2.03;;;;;;;20.12;90.56;100988.66;2056007;28;20314;-68
2022/08/23 03:50:35;;;;;;;6.72;2.63;;;;;;;20.11;90.80;100992.50;2064157;28;20054;-67
2022/08/23 03:51:40;;;;;;;4.22;1.92;;;;;;;20.13;90.80;100990.22;2063186;28;20081;-67
2022/08/23 03:52:44;;;;;;;6.18;2.40;;;;;;;20.11;91.06;100989.78;2047791;28;20078;-66
2022/08/23 03:53:46;;;;;;;7.82;2.35;;;;;;;20.09;91.47;100993.97;2060447;28;20745;-66
2022/08/23 03:54:50;;;;;;;6.28;2.40;;;;;;;20.05;92.02;100988.38;2047607;28;20046;-66
2022/08/23 03:55:54;;;;;;;6.65;2.33;;;;;;;20.03;92.42;100990.63;2057690;28;20050;-66
2022/08/23 03:57:18;;;;;;;5.25;2.15;;;;;;;20.03;92.53;100989.84;2063593;28;20038;-67
2022/08/23 03:58:26;;;;;;;3.22;2.10;;;;;;;20.03;92.79;100996.09;2061426;28;20485;-68
2022/08/23 03:59:32;;;;;;;6.25;2.50;;;;;;;20.04;92.87;100991.44;2056504;28;20039;-68
2022/08/23 04:00:38;;;;;;;6.97;2.60;;;;;;;20.06;92.90;100989.19;2058080;28;20155;-67
2022/08/23 04:01:43;;;;;;;8.23;2.30;;;;;;;20.07;93.16;100991.56;2063501;28;20039;-67
2022/08/23 04:02:47;;;;;;;10.02;2.92;;;;;;;20.06;93.06;100989.97;2063500;28;20043;-67
2022/08/23 04:03:49;;;;;;;10.65;2.63;;;;;;;20.03;93.39;100987.91;2071388;28;20077;-65
2022/08/23 04:04:52;;;;;;;8.15;2.70;;;;;;;19.99;93.58;100988.91;2066218;28;20093;-66
2022/08/23 04:06:17;;;;;;;6.88;2.28;;;;;;;19.99;93.72;100994.38;2069868;28;20041;-68
2022/08/23 04:07:22;;;;;;;6.38;2.47;;;;;;;19.99;94.06;100995.16;2063506;28;20050;-68
2022/08/23 04:08:29;;;;;;;13.45;3.10;;;;;;;19.97;94.29;100991.97;2068151;28;20040;-67
2022/08/23 04:09:32;;;;;;;6.22;2.50;;;;;;;19.95;94.60;100998.88;2062493;28;20062;-67
2022/08/23 04:10:34;;;;;;;6.55;2.03;;;;;;;19.84;95.40;100993.81;2069524;28;20044;-67
2022/08/23 04:11:38;;;;;;;5.97;2.75;;;;;;;19.85;95.50;100992.66;2063119;28;20034;-67
2022/08/23 04:12:45;;;;;;;;;;;;;;;19.82;95.76;100995.25;2054612;28;20051;-67
2022/08/23 04:13:55;;;;;;;7.40;2.60;;;;;;;19.79;95.80;100991.25;2064603;28;19917;-66
2022/08/23 04:14:58;;;;;;;10.70;3.15;;;;;;;19.79;95.97;100991.25;2071348;28;20033;-67
2022/08/23 04:16:03;;;;;;;7.53;2.67;;;;;;;19.82;96.00;100995.25;2084412;28;20032;-66
2022/08/23 04:17:05;;;;;;;4.20;2.60;;;;;;;19.81;95.75;100988.22;2072126;28;20045;-67
2022/08/23 04:18:14;;;;;;;10.13;2.50;;;;;;;19.78;95.95;100986.94;2072368;28;20046;-67
2022/08/23 04:19:18;;;;;;;6.60;2.85;;;;;;;19.76;95.98;100988.41;2063572;28;20661;-67
2022/08/23 04:20:34;;;;;;;9.80;3.63;;;;;;;19.70;96.25;100992.44;2076299;28;20041;-67
2022/08/23 04:21:43;;;;;;;10.20;2.97;;;;;;;19.70;96.61;100989.72;2078828;28;20041;-67
2022/08/23 04:22:45;;;;;;;6.30;2.80;;;;;;;19.71;96.54;100999.50;2065004;28;20050;-68
2022/08/23 04:23:52;;;;;;;8.20;3.00;;;;;;;19.69;96.63;100991.66;2071268;28;20532;-67
2022/08/23 04:24:55;;;;;;;7.13;2.90;;;;;;;19.70;96.70;100992.44;2071851;28;20030;-67
2022/08/23 04:25:59;;;;;;;6.35;3.00;;;;;;;19.72;96.80;100998.38;2063349;28;20038;-67
2022/08/23 04:27:01;;;;;;;9.00;2.65;;;;;;;19.72;96.74;100996.44;2072583;28;20045;-67
2022/08/23 04:28:07;;;;;;;6.72;2.40;;;;;;;19.70;96.79;100998.69;2079381;28;20036;-67
2022/08/23 04:29:15;;;;;;;6.78;2.28;;;;;;;19.67;96.98;101000.16;2063813;28;20045;-67
2022/08/23 04:30:22;;;;;;;6.25;2.90;;;;;;;19.66;96.87;100989.56;2057726;28;20031;-67
2022/08/23 04:31:27;;;;;;;5.90;2.90;;;;;;;19.64;97.27;100994.53;2070727;28;20037;-68
2022/08/23 04:32:30;;;;;;;8.88;2.60;;;;;;;19.63;97.54;100996.44;2055324;28;20050;-72
2022/08/23 04:33:36;;;;;;;6.80;2.70;;;;;;;19.66;97.40;100993.09;2047996;28;20469;-73
2022/08/23 04:34:41;;;;;;;10.68;3.00;;;;;;;19.68;97.13;100990.84;2069528;28;20154;-72
2022/08/23 04:35:47;;;;;;;8.20;2.80;;;;;;;19.68;97.34;101001.75;2057568;28;20030;-72
2022/08/23 04:36:50;;;;;;;7.88;2.63;;;;;;;19.68;97.23;100990.84;2059125;28;20471;-72
2022/08/23 04:37:53;;;;;;;9.50;2.78;;;;;;;19.68;97.27;100993.56;2066574;28;20045;-71
2022/08/23 04:38:56;;;;;;;10.73;2.97;;;;;;;19.67;97.37;100996.63;2059789;28;20435;-72
2022/08/23 04:42:46;;;;;;;10.23;2.90;;;;;;;19.61;97.98;100995.19;2071526;28;20037;-71
2022/08/23 04:43:55;;;;;;;12.23;2.80;;;;;;;19.61;98.06;101001.47;2067868;28;20053;-71
2022/08/23 04:44:58;;;;;;;8.18;2.97;;;;;;;19.58;98.31;101002.09;2075471;28;20057;-72
2022/08/23 04:46:00;;;;;;;12.00;3.10;;;;;;;19.60;98.17;100997.09;2068442;28;20057;-73
2022/08/23 04:47:08;;;;;;;6.00;2.97;;;;;;;19.61;98.15;100997.94;2067539;28;20050;-73
2022/08/23 04:48:17;;;;;;;6.72;2.75;;;;;;;19.60;98.17;100999.84;2059475;28;20038;-73
2022/08/23 04:49:26;;;;;;;8.35;2.90;;;;;;;19.62;98.46;100997.59;2058970;28;20143;-70
2022/08/23 04:50:28;;;;;;;14.43;3.38;;;;;;;19.62;98.40;100999.53;2068188;28;20512;-72
2022/08/23 04:51:52;;;;;;;7.07;2.90;;;;;;;19.57;98.52;100997.75;2074415;28;20030;-72
2022/08/23 04:52:54;;;;;;;7.05;3.10;;;;;;;19.57;98.49;101000.50;2071945;28;20053;-69
2022/08/23 04:54:01;;;;;;;6.43;2.92;;;;;;;19.59;98.93;101003.69;2064700;28;20763;-76
2022/08/23 04:55:21;;;;;;;;;;;;;;;19.63;98.65;101004.63;2067021;28;20037;-75
2022/08/23 04:56:25;;;;;;;7.95;2.97;;;;;;;19.61;98.78;101001.47;2072617;28;20674;-77
2022/08/23 04:57:29;;;;;;;9.55;3.00;;;;;;;19.61;98.70;101006.91;2070869;28;20844;-73
2022/08/23 04:58:38;;;;;;;10.10;3.72;;;;;;;19.63;98.79;101007.38;2056954;28;20050;-75
2022/08/23 04:59:42;;;;;;;9.10;2.92;;;;;;;19.66;98.60;101001.28;2072081;28;20533;-73
2022/08/23 05:00:51;;;;;;;7.45;3.10;;;;;;;19.64;98.74;101009.00;2071720;28;20080;-72
2022/08/23 05:01:56;;;;;;;9.70;3.53;;;;;;;19.64;98.74;101006.28;2065033;28;20061;-72
2022/08/23 05:03:00;;;;;;;4.60;3.20;;;;;;;19.66;98.87;101011.41;2063720;28;20048;-73
2022/08/23 05:04:11;;;;;;;9.70;3.42;;;;;;;19.64;98.89;101008.19;2072449;28;20809;-73
2022/08/23 05:05:20;;;;;;;10.00;2.93;;;;;;;19.65;99.01;101012.53;2062866;28;20062;-72
2022/08/23 05:06:23;;;;;;;7.82;2.95;;;;;;;19.63;98.97;101004.63;2055654;28;20762;-73
2022/08/23 05:07:25;;;;;;;10.77;3.33;;;;;;;19.64;98.90;101017.19;2056089;28;20057;-73
2022/08/23 05:08:31;;;;;;;8.23;2.97;;;;;;;19.65;99.17;101010.59;2063984;28;20050;-73
2022/08/23 05:09:40;;;;;;;9.70;3.40;;;;;;;19.66;99.24;101009.47;2057159;28;20047;-78
2022/08/23 05:10:43;;;;;;;10.18;3.55;;;;;;;19.66;99.29;101005.94;2074708;28;20037;-75
2022/08/23 05:11:45;;;;;;;7.90;3.47;;;;;;;19.65;99.44;101002.41;2059922;28;20042;-75
2022/08/23 05:12:52;;;;;;;7.18;3.10;;;;;;;19.67;99.60;101005.63;2050992;28;20042;-75
2022/08/23 05:13:59;;;;;;;10.15;3.40;;;;;;;19.68;99.69;101009.94;2059382;28;20045;-75
2022/08/23 05:15:01;;;;;;;7.72;3.53;;;;;;;19.70;99.55;101003.34;2059874;28;20049;-75
2022/08/23 05:16:06;;;;;;;10.38;3.92;;;;;;;19.70;99.61;101008.81;2054907;28;20071;-75
2022/08/23 05:17:12;;;;;;;10.57;3.70;;;;;;;19.70;99.51;101003.34;2052754;28;20045;-75